sensor_id;sensor_type;location;lat;lon;timestamp;P1;durP1;ratioP1;P2;durP2;ratioP2
5690;SDS011;2870;42.680;23.364;2022-11-28T00:00:06;17.43;;;11.80;;
5690;SDS011;2870;42.680;23.364;2022-11-28T00:02:34;15.00;;;10.73;;
5690;SDS011;2870;42.680;23.364;2022-11-28T00:05:01;14.97;;;10.93;;
5690;SDS011;2870;42.680;23.364;2022-11-28T00:07:28;16.63;;;9.87;;
5690;SDS011;2870;42.680;23.364;2022-11-28T00:09:55;13.83;;;8.80;;
5690;SDS011;2870;42.680;23.364;2022-11-28T00:12:21;12.73;;;8.70;;
5690;SDS011;2870;42.680;23.364;2022-11-28T00:14:50;12.20;;;8.50;;
5690;SDS011;2870;42.680;23.364;2022-11-28T00:17:16;12.30;;;9.07;;
5690;SDS011;2870;42.680;23.364;2022-11-28T00:19:43;12.73;;;9.50;;
5690;SDS011;2870;42.680;23.364;2022-11-28T00:22:10;11.70;;;9.10;;
5690;SDS011;2870;42.680;23.364;2022-11-28T00:24:38;12.20;;;8.90;;
5690;SDS011;2870;42.680;23.364;2022-11-28T00:27:05;11.13;;;8.80;;
5690;SDS011;2870;42.680;23.364;2022-11-28T00:29:32;10.17;;;8.10;;
5690;SDS011;2870;42.680;23.364;2022-11-28T00:32:00;11.00;;;8.47;;
5690;SDS011;2870;42.680;23.364;2022-11-28T00:34:27;12.77;;;8.23;;
5690;SDS011;2870;42.680;23.364;2022-11-28T00:36:54;14.07;;;9.33;;
5690;SDS011;2870;42.680;23.364;2022-11-28T00:39:21;13.07;;;8.40;;
5690;SDS011;2870;42.680;23.364;2022-11-28T00:41:47;10.20;;;7.67;;
5690;SDS011;2870;42.680;23.364;2022-11-28T00:44:14;13.30;;;8.57;;
5690;SDS011;2870;42.680;23.364;2022-11-28T00:46:41;15.93;;;8.50;;
5690;SDS011;2870;42.680;23.364;2022-11-28T00:49:10;14.90;;;9.10;;
5690;SDS011;2870;42.680;23.364;2022-11-28T00:51:37;14.60;;;9.50;;
5690;SDS011;2870;42.680;23.364;2022-11-28T00:54:04;10.37;;;8.17;;
5690;SDS011;2870;42.680;23.364;2022-11-28T00:56:32;11.23;;;8.70;;
5690;SDS011;2870;42.680;23.364;2022-11-28T00:59:00;12.17;;;7.33;;
5690;SDS011;2870;42.680;23.364;2022-11-28T01:01:29;9.80;;;8.00;;
5690;SDS011;2870;42.680;23.364;2022-11-28T01:03:57;10.33;;;8.50;;
5690;SDS011;2870;42.680;23.364;2022-11-28T01:06:27;14.13;;;8.90;;
5690;SDS011;2870;42.680;23.364;2022-11-28T01:08:57;9.13;;;7.63;;
5690;SDS011;2870;42.680;23.364;2022-11-28T01:11:25;9.53;;;7.60;;
5690;SDS011;2870;42.680;23.364;2022-11-28T01:13:52;12.20;;;8.53;;
5690;SDS011;2870;42.680;23.364;2022-11-28T01:16:20;9.73;;;8.17;;
5690;SDS011;2870;42.680;23.364;2022-11-28T01:18:47;11.30;;;8.53;;
5690;SDS011;2870;42.680;23.364;2022-11-28T01:21:13;13.03;;;8.50;;
5690;SDS011;2870;42.680;23.364;2022-11-28T01:23:42;10.90;;;8.40;;
5690;SDS011;2870;42.680;23.364;2022-11-28T01:26:10;10.73;;;8.13;;
5690;SDS011;2870;42.680;23.364;2022-11-28T01:28:40;9.83;;;8.67;;
5690;SDS011;2870;42.680;23.364;2022-11-28T01:31:07;11.63;;;7.73;;
5690;SDS011;2870;42.680;23.364;2022-11-28T01:33:37;12.60;;;8.87;;
5690;SDS011;2870;42.680;23.364;2022-11-28T01:36:04;10.77;;;8.17;;
5690;SDS011;2870;42.680;23.364;2022-11-28T01:38:32;9.13;;;7.30;;
5690;SDS011;2870;42.680;23.364;2022-11-28T01:41:00;10.30;;;7.70;;
5690;SDS011;2870;42.680;23.364;2022-11-28T01:43:28;10.32;;;7.60;;
5690;SDS011;2870;42.680;23.364;2022-11-28T01:45:55;9.33;;;7.37;;
5690;SDS011;2870;42.680;23.364;2022-11-28T01:48:23;17.00;;;8.30;;
5690;SDS011;2870;42.680;23.364;2022-11-28T01:50:54;8.63;;;7.27;;
5690;SDS011;2870;42.680;23.364;2022-11-28T01:53:23;11.90;;;8.17;;
5690;SDS011;2870;42.680;23.364;2022-11-28T01:55:54;9.83;;;8.83;;
5690;SDS011;2870;42.680;23.364;2022-11-28T01:58:26;9.57;;;7.30;;
5690;SDS011;2870;42.680;23.364;2022-11-28T02:00:54;11.43;;;8.37;;
5690;SDS011;2870;42.680;23.364;2022-11-28T02:03:24;9.33;;;7.80;;
5690;SDS011;2870;42.680;23.364;2022-11-28T02:05:55;9.40;;;8.40;;
5690;SDS011;2870;42.680;23.364;2022-11-28T02:08:22;10.87;;;8.00;;
5690;SDS011;2870;42.680;23.364;2022-11-28T02:13:50;9.73;;;7.70;;
5690;SDS011;2870;42.680;23.364;2022-11-28T02:16:32;11.63;;;8.07;;
5690;SDS011;2870;42.680;23.364;2022-11-28T02:19:28;13.17;;;8.60;;
5690;SDS011;2870;42.680;23.364;2022-11-28T02:22:13;11.90;;;8.50;;
5690;SDS011;2870;42.680;23.364;2022-11-28T02:24:52;10.60;;;8.33;;
5690;SDS011;2870;42.680;23.364;2022-11-28T02:30:35;11.00;;;8.90;;
5690;SDS011;2870;42.680;23.364;2022-11-28T02:33:17;15.40;;;9.43;;
5690;SDS011;2870;42.680;23.364;2022-11-28T02:35:53;13.50;;;9.60;;
5690;SDS011;2870;42.680;23.364;2022-11-28T02:38:31;12.40;;;8.90;;
5690;SDS011;2870;42.680;23.364;2022-11-28T02:41:14;12.40;;;8.97;;
5690;SDS011;2870;42.680;23.364;2022-11-28T02:43:49;10.97;;;8.13;;
5690;SDS011;2870;42.680;23.364;2022-11-28T02:46:21;11.33;;;8.90;;
5690;SDS011;2870;42.680;23.364;2022-11-28T02:48:55;12.13;;;8.43;;
5690;SDS011;2870;42.680;23.364;2022-11-28T02:51:28;11.40;;;8.70;;
5690;SDS011;2870;42.680;23.364;2022-11-28T02:53:57;10.90;;;7.80;;
5690;SDS011;2870;42.680;23.364;2022-11-28T02:56:26;10.00;;;8.67;;
5690;SDS011;2870;42.680;23.364;2022-11-28T02:58:52;14.53;;;9.33;;
5690;SDS011;2870;42.680;23.364;2022-11-28T03:04:13;10.13;;;8.03;;
5690;SDS011;2870;42.680;23.364;2022-11-28T03:06:51;10.02;;;7.80;;
5690;SDS011;2870;42.680;23.364;2022-11-28T03:09:28;13.43;;;9.20;;
5690;SDS011;2870;42.680;23.364;2022-11-28T03:12:14;9.93;;;8.45;;
5690;SDS011;2870;42.680;23.364;2022-11-28T03:14:50;11.83;;;9.27;;
5690;SDS011;2870;42.680;23.364;2022-11-28T03:17:20;9.00;;;6.83;;
5690;SDS011;2870;42.680;23.364;2022-11-28T03:20:04;11.68;;;8.15;;
5690;SDS011;2870;42.680;23.364;2022-11-28T03:22:44;9.63;;;7.93;;
5690;SDS011;2870;42.680;23.364;2022-11-28T03:25:25;13.07;;;8.10;;
5690;SDS011;2870;42.680;23.364;2022-11-28T03:27:58;10.20;;;8.00;;
5690;SDS011;2870;42.680;23.364;2022-11-28T03:30:31;12.93;;;8.70;;
5690;SDS011;2870;42.680;23.364;2022-11-28T03:33:02;10.57;;;7.90;;
5690;SDS011;2870;42.680;23.364;2022-11-28T03:35:31;9.63;;;8.03;;
5690;SDS011;2870;42.680;23.364;2022-11-28T03:38:03;8.60;;;7.70;;
5690;SDS011;2870;42.680;23.364;2022-11-28T03:40:35;8.30;;;6.83;;
5690;SDS011;2870;42.680;23.364;2022-11-28T03:43:08;8.73;;;6.30;;
5690;SDS011;2870;42.680;23.364;2022-11-28T03:45:40;8.10;;;7.07;;
5690;SDS011;2870;42.680;23.364;2022-11-28T03:48:11;15.87;;;12.17;;
5690;SDS011;2870;42.680;23.364;2022-11-28T03:50:43;9.13;;;7.77;;
5690;SDS011;2870;42.680;23.364;2022-11-28T03:53:15;7.60;;;6.10;;
5690;SDS011;2870;42.680;23.364;2022-11-28T03:55:47;7.17;;;5.70;;
5690;SDS011;2870;42.680;23.364;2022-11-28T03:58:21;7.50;;;6.70;;
5690;SDS011;2870;42.680;23.364;2022-11-28T04:00:55;6.80;;;6.00;;
5690;SDS011;2870;42.680;23.364;2022-11-28T04:03:34;7.07;;;5.93;;
5690;SDS011;2870;42.680;23.364;2022-11-28T04:06:10;6.50;;;5.20;;
5690;SDS011;2870;42.680;23.364;2022-11-28T04:08:42;6.13;;;5.47;;
5690;SDS011;2870;42.680;23.364;2022-11-28T04:11:14;6.23;;;5.70;;
5690;SDS011;2870;42.680;23.364;2022-11-28T04:13:47;6.70;;;6.10;;
5690;SDS011;2870;42.680;23.364;2022-11-28T04:16:19;6.30;;;5.70;;
5690;SDS011;2870;42.680;23.364;2022-11-28T04:18:51;8.00;;;7.03;;
5690;SDS011;2870;42.680;23.364;2022-11-28T04:21:25;6.40;;;5.80;;
5690;SDS011;2870;42.680;23.364;2022-11-28T04:23:56;5.43;;;5.03;;
5690;SDS011;2870;42.680;23.364;2022-11-28T04:26:28;6.03;;;5.33;;
5690;SDS011;2870;42.680;23.364;2022-11-28T04:28:59;5.25;;;4.75;;
5690;SDS011;2870;42.680;23.364;2022-11-28T04:31:28;5.23;;;4.83;;
5690;SDS011;2870;42.680;23.364;2022-11-28T04:33:57;5.40;;;4.90;;
5690;SDS011;2870;42.680;23.364;2022-11-28T04:36:29;4.80;;;4.40;;
5690;SDS011;2870;42.680;23.364;2022-11-28T04:38:58;6.03;;;5.43;;
5690;SDS011;2870;42.680;23.364;2022-11-28T04:41:27;5.20;;;4.70;;
5690;SDS011;2870;42.680;23.364;2022-11-28T04:43:59;5.07;;;4.57;;
5690;SDS011;2870;42.680;23.364;2022-11-28T04:46:34;4.77;;;4.33;;
5690;SDS011;2870;42.680;23.364;2022-11-28T04:49:05;5.50;;;4.80;;
5690;SDS011;2870;42.680;23.364;2022-11-28T04:51:35;5.30;;;4.83;;
5690;SDS011;2870;42.680;23.364;2022-11-28T04:54:09;5.03;;;4.53;;
5690;SDS011;2870;42.680;23.364;2022-11-28T04:56:41;5.00;;;4.50;;
5690;SDS011;2870;42.680;23.364;2022-11-28T04:59:11;5.10;;;4.60;;
5690;SDS011;2870;42.680;23.364;2022-11-28T05:01:40;5.00;;;4.57;;
5690;SDS011;2870;42.680;23.364;2022-11-28T05:04:11;5.37;;;4.87;;
5690;SDS011;2870;42.680;23.364;2022-11-28T05:06:40;5.20;;;4.70;;
5690;SDS011;2870;42.680;23.364;2022-11-28T05:09:08;5.60;;;5.10;;
5690;SDS011;2870;42.680;23.364;2022-11-28T05:11:35;5.40;;;4.90;;
5690;SDS011;2870;42.680;23.364;2022-11-28T05:14:02;5.20;;;4.70;;
5690;SDS011;2870;42.680;23.364;2022-11-28T05:16:29;5.07;;;4.60;;
5690;SDS011;2870;42.680;23.364;2022-11-28T05:18:56;5.67;;;4.53;;
5690;SDS011;2870;42.680;23.364;2022-11-28T05:21:23;5.10;;;4.60;;
5690;SDS011;2870;42.680;23.364;2022-11-28T05:23:51;5.30;;;4.80;;
5690;SDS011;2870;42.680;23.364;2022-11-28T05:26:19;5.77;;;4.90;;
5690;SDS011;2870;42.680;23.364;2022-11-28T05:28:48;5.30;;;4.80;;
5690;SDS011;2870;42.680;23.364;2022-11-28T05:31:16;5.73;;;5.10;;
5690;SDS011;2870;42.680;23.364;2022-11-28T05:33:44;7.27;;;5.07;;
5690;SDS011;2870;42.680;23.364;2022-11-28T05:36:11;5.20;;;4.70;;
5690;SDS011;2870;42.680;23.364;2022-11-28T05:38:39;6.50;;;5.90;;
5690;SDS011;2870;42.680;23.364;2022-11-28T05:41:07;5.80;;;5.30;;
5690;SDS011;2870;42.680;23.364;2022-11-28T05:43:35;6.27;;;5.67;;
5690;SDS011;2870;42.680;23.364;2022-11-28T05:46:03;7.63;;;6.17;;
5690;SDS011;2870;42.680;23.364;2022-11-28T05:48:30;5.83;;;5.33;;
5690;SDS011;2870;42.680;23.364;2022-11-28T05:50:57;6.40;;;5.80;;
5690;SDS011;2870;42.680;23.364;2022-11-28T05:53:24;6.27;;;5.67;;
5690;SDS011;2870;42.680;23.364;2022-11-28T05:55:51;5.33;;;4.83;;
5690;SDS011;2870;42.680;23.364;2022-11-28T05:58:19;6.37;;;5.57;;
5690;SDS011;2870;42.680;23.364;2022-11-28T06:00:46;6.00;;;5.40;;
5690;SDS011;2870;42.680;23.364;2022-11-28T06:03:12;7.50;;;6.00;;
5690;SDS011;2870;42.680;23.364;2022-11-28T06:05:39;7.60;;;5.40;;
5690;SDS011;2870;42.680;23.364;2022-11-28T06:08:07;7.67;;;6.40;;
5690;SDS011;2870;42.680;23.364;2022-11-28T06:10:36;7.37;;;5.83;;
5690;SDS011;2870;42.680;23.364;2022-11-28T06:13:02;6.80;;;6.00;;
5690;SDS011;2870;42.680;23.364;2022-11-28T06:15:31;7.30;;;6.20;;
5690;SDS011;2870;42.680;23.364;2022-11-28T06:17:58;6.93;;;6.00;;
5690;SDS011;2870;42.680;23.364;2022-11-28T06:20:25;6.53;;;5.87;;
5690;SDS011;2870;42.680;23.364;2022-11-28T06:22:51;8.30;;;6.13;;
5690;SDS011;2870;42.680;23.364;2022-11-28T06:25:18;7.30;;;6.00;;
5690;SDS011;2870;42.680;23.364;2022-11-28T06:27:45;6.83;;;5.70;;
5690;SDS011;2870;42.680;23.364;2022-11-28T06:30:12;8.80;;;6.53;;
5690;SDS011;2870;42.680;23.364;2022-11-28T06:32:41;6.83;;;6.13;;
5690;SDS011;2870;42.680;23.364;2022-11-28T06:35:08;7.03;;;6.20;;
5690;SDS011;2870;42.680;23.364;2022-11-28T06:37:35;6.20;;;5.60;;
5690;SDS011;2870;42.680;23.364;2022-11-28T06:40:02;9.00;;;5.63;;
5690;SDS011;2870;42.680;23.364;2022-11-28T06:42:29;7.43;;;6.70;;
5690;SDS011;2870;42.680;23.364;2022-11-28T06:44:56;10.47;;;7.43;;
5690;SDS011;2870;42.680;23.364;2022-11-28T06:47:23;7.13;;;6.10;;
5690;SDS011;2870;42.680;23.364;2022-11-28T06:49:52;9.30;;;6.30;;
5690;SDS011;2870;42.680;23.364;2022-11-28T06:52:18;8.33;;;6.23;;
5690;SDS011;2870;42.680;23.364;2022-11-28T06:54:45;10.17;;;6.97;;
5690;SDS011;2870;42.680;23.364;2022-11-28T06:57:12;7.60;;;6.80;;
5690;SDS011;2870;42.680;23.364;2022-11-28T06:59:39;10.80;;;7.33;;
5690;SDS011;2870;42.680;23.364;2022-11-28T07:02:08;17.67;;;12.47;;
5690;SDS011;2870;42.680;23.364;2022-11-28T07:04:36;11.93;;;8.83;;
5690;SDS011;2870;42.680;23.364;2022-11-28T07:07:04;13.77;;;8.77;;
5690;SDS011;2870;42.680;23.364;2022-11-28T07:09:31;16.13;;;8.63;;
5690;SDS011;2870;42.680;23.364;2022-11-28T07:11:58;12.77;;;8.20;;
5690;SDS011;2870;42.680;23.364;2022-11-28T07:14:25;15.77;;;9.53;;
5690;SDS011;2870;42.680;23.364;2022-11-28T07:16:52;13.10;;;9.03;;
5690;SDS011;2870;42.680;23.364;2022-11-28T07:19:19;13.50;;;9.40;;
5690;SDS011;2870;42.680;23.364;2022-11-28T07:21:47;15.03;;;9.63;;
5690;SDS011;2870;42.680;23.364;2022-11-28T07:24:16;13.77;;;9.57;;
5690;SDS011;2870;42.680;23.364;2022-11-28T07:26:44;13.00;;;9.30;;
5690;SDS011;2870;42.680;23.364;2022-11-28T07:29:12;12.53;;;9.40;;
5690;SDS011;2870;42.680;23.364;2022-11-28T07:31:40;14.43;;;10.30;;
5690;SDS011;2870;42.680;23.364;2022-11-28T07:34:07;16.60;;;12.20;;
5690;SDS011;2870;42.680;23.364;2022-11-28T07:36:35;24.60;;;18.20;;
5690;SDS011;2870;42.680;23.364;2022-11-28T07:39:04;21.27;;;15.13;;
5690;SDS011;2870;42.680;23.364;2022-11-28T07:41:35;23.93;;;17.43;;
5690;SDS011;2870;42.680;23.364;2022-11-28T07:44:02;21.40;;;14.97;;
5690;SDS011;2870;42.680;23.364;2022-11-28T07:46:29;24.27;;;16.80;;
5690;SDS011;2870;42.680;23.364;2022-11-28T07:48:57;24.73;;;15.90;;
5690;SDS011;2870;42.680;23.364;2022-11-28T07:51:26;21.00;;;15.70;;
5690;SDS011;2870;42.680;23.364;2022-11-28T07:53:54;20.70;;;13.63;;
5690;SDS011;2870;42.680;23.364;2022-11-28T07:56:23;13.60;;;11.07;;
5690;SDS011;2870;42.680;23.364;2022-11-28T07:58:52;13.53;;;10.00;;
5690;SDS011;2870;42.680;23.364;2022-11-28T08:01:20;12.83;;;8.73;;
5690;SDS011;2870;42.680;23.364;2022-11-28T08:03:48;12.00;;;7.77;;
5690;SDS011;2870;42.680;23.364;2022-11-28T08:06:16;9.30;;;7.70;;
5690;SDS011;2870;42.680;23.364;2022-11-28T08:08:45;9.63;;;7.13;;
5690;SDS011;2870;42.680;23.364;2022-11-28T08:11:13;10.03;;;8.23;;
5690;SDS011;2870;42.680;23.364;2022-11-28T08:13:41;10.00;;;8.00;;
5690;SDS011;2870;42.680;23.364;2022-11-28T08:16:11;13.53;;;8.10;;
5690;SDS011;2870;42.680;23.364;2022-11-28T08:18:39;12.27;;;9.40;;
5690;SDS011;2870;42.680;23.364;2022-11-28T08:21:07;15.90;;;10.87;;
5690;SDS011;2870;42.680;23.364;2022-11-28T08:23:35;12.23;;;8.50;;
5690;SDS011;2870;42.680;23.364;2022-11-28T08:26:03;9.10;;;7.90;;
5690;SDS011;2870;42.680;23.364;2022-11-28T08:28:31;9.03;;;7.53;;
5690;SDS011;2870;42.680;23.364;2022-11-28T08:30:58;10.07;;;7.93;;
5690;SDS011;2870;42.680;23.364;2022-11-28T08:33:27;14.27;;;8.93;;
5690;SDS011;2870;42.680;23.364;2022-11-28T08:35:54;10.10;;;8.07;;
5690;SDS011;2870;42.680;23.364;2022-11-28T08:38:20;10.40;;;7.70;;
5690;SDS011;2870;42.680;23.364;2022-11-28T08:40:47;13.30;;;8.87;;
5690;SDS011;2870;42.680;23.364;2022-11-28T08:43:14;12.20;;;9.00;;
5690;SDS011;2870;42.680;23.364;2022-11-28T08:45:41;12.77;;;8.90;;
5690;SDS011;2870;42.680;23.364;2022-11-28T08:48:08;10.17;;;8.70;;
5690;SDS011;2870;42.680;23.364;2022-11-28T08:50:36;13.87;;;9.37;;
5690;SDS011;2870;42.680;23.364;2022-11-28T08:53:04;11.73;;;9.07;;
5690;SDS011;2870;42.680;23.364;2022-11-28T08:55:31;13.20;;;9.53;;
5690;SDS011;2870;42.680;23.364;2022-11-28T08:57:58;12.53;;;9.60;;
5690;SDS011;2870;42.680;23.364;2022-11-28T09:00:24;14.13;;;9.97;;
5690;SDS011;2870;42.680;23.364;2022-11-28T09:02:51;12.30;;;9.40;;
5690;SDS011;2870;42.680;23.364;2022-11-28T09:05:18;11.60;;;9.13;;
5690;SDS011;2870;42.680;23.364;2022-11-28T09:07:46;12.97;;;9.30;;
5690;SDS011;2870;42.680;23.364;2022-11-28T09:10:13;10.83;;;8.77;;
5690;SDS011;2870;42.680;23.364;2022-11-28T09:12:40;11.20;;;9.10;;
5690;SDS011;2870;42.680;23.364;2022-11-28T09:15:07;10.27;;;8.63;;
5690;SDS011;2870;42.680;23.364;2022-11-28T09:17:34;10.87;;;8.53;;
5690;SDS011;2870;42.680;23.364;2022-11-28T09:20:01;12.23;;;9.10;;
5690;SDS011;2870;42.680;23.364;2022-11-28T09:22:29;9.90;;;8.40;;
5690;SDS011;2870;42.680;23.364;2022-11-28T09:24:57;14.43;;;8.80;;
5690;SDS011;2870;42.680;23.364;2022-11-28T09:27:24;13.00;;;8.37;;
5690;SDS011;2870;42.680;23.364;2022-11-28T09:29:51;12.37;;;9.90;;
5690;SDS011;2870;42.680;23.364;2022-11-28T09:32:17;11.63;;;8.53;;
5690;SDS011;2870;42.680;23.364;2022-11-28T09:34:44;14.20;;;9.57;;
5690;SDS011;2870;42.680;23.364;2022-11-28T09:37:11;10.47;;;7.90;;
5690;SDS011;2870;42.680;23.364;2022-11-28T09:39:38;8.87;;;7.90;;
5690;SDS011;2870;42.680;23.364;2022-11-28T09:42:10;7.83;;;6.63;;
5690;SDS011;2870;42.680;23.364;2022-11-28T09:44:42;7.70;;;6.53;;
5690;SDS011;2870;42.680;23.364;2022-11-28T09:47:16;9.83;;;7.47;;
5690;SDS011;2870;42.680;23.364;2022-11-28T09:49:47;8.50;;;7.37;;
5690;SDS011;2870;42.680;23.364;2022-11-28T09:52:25;7.20;;;6.20;;
5690;SDS011;2870;42.680;23.364;2022-11-28T09:55:00;6.83;;;5.33;;
5690;SDS011;2870;42.680;23.364;2022-11-28T09:57:39;11.40;;;5.80;;
5690;SDS011;2870;42.680;23.364;2022-11-28T10:00:10;7.00;;;5.90;;
5690;SDS011;2870;42.680;23.364;2022-11-28T10:02:43;6.20;;;5.60;;
5690;SDS011;2870;42.680;23.364;2022-11-28T10:05:23;10.20;;;7.40;;
5690;SDS011;2870;42.680;23.364;2022-11-28T10:07:59;6.00;;;5.40;;
5690;SDS011;2870;42.680;23.364;2022-11-28T10:10:40;10.13;;;8.57;;
5690;SDS011;2870;42.680;23.364;2022-11-28T10:13:19;5.83;;;5.07;;
5690;SDS011;2870;42.680;23.364;2022-11-28T10:15:54;6.53;;;5.70;;
5690;SDS011;2870;42.680;23.364;2022-11-28T10:18:32;8.70;;;6.37;;
5690;SDS011;2870;42.680;23.364;2022-11-28T10:21:03;7.27;;;6.57;;
5690;SDS011;2870;42.680;23.364;2022-11-28T10:23:41;8.23;;;4.70;;
5690;SDS011;2870;42.680;23.364;2022-11-28T10:26:12;6.43;;;5.27;;
5690;SDS011;2870;42.680;23.364;2022-11-28T10:28:49;6.17;;;5.20;;
5690;SDS011;2870;42.680;23.364;2022-11-28T10:31:20;5.00;;;4.50;;
5690;SDS011;2870;42.680;23.364;2022-11-28T10:33:56;7.00;;;5.13;;
5690;SDS011;2870;42.680;23.364;2022-11-28T10:36:32;14.50;;;5.20;;
5690;SDS011;2870;42.680;23.364;2022-11-28T10:39:12;6.67;;;5.00;;
5690;SDS011;2870;42.680;23.364;2022-11-28T10:41:41;6.10;;;5.40;;
5690;SDS011;2870;42.680;23.364;2022-11-28T10:44:37;6.33;;;5.47;;
5690;SDS011;2870;42.680;23.364;2022-11-28T10:47:15;6.90;;;5.63;;
5690;SDS011;2870;42.680;23.364;2022-11-28T10:49:53;8.83;;;6.13;;
5690;SDS011;2870;42.680;23.364;2022-11-28T10:52:29;6.23;;;5.53;;
5690;SDS011;2870;42.680;23.364;2022-11-28T10:55:10;8.40;;;6.17;;
5690;SDS011;2870;42.680;23.364;2022-11-28T10:57:50;7.70;;;5.47;;
5690;SDS011;2870;42.680;23.364;2022-11-28T11:00:25;6.67;;;5.77;;
5690;SDS011;2870;42.680;23.364;2022-11-28T11:02:52;7.50;;;5.87;;
5690;SDS011;2870;42.680;23.364;2022-11-28T11:05:23;7.43;;;6.13;;
5690;SDS011;2870;42.680;23.364;2022-11-28T11:07:51;7.87;;;5.93;;
5690;SDS011;2870;42.680;23.364;2022-11-28T11:10:21;8.07;;;6.03;;
5690;SDS011;2870;42.680;23.364;2022-11-28T11:12:51;5.57;;;4.97;;
5690;SDS011;2870;42.680;23.364;2022-11-28T11:15:22;6.17;;;5.30;;
5690;SDS011;2870;42.680;23.364;2022-11-28T11:17:55;5.50;;;5.00;;
5690;SDS011;2870;42.680;23.364;2022-11-28T11:20:33;6.57;;;5.30;;
5690;SDS011;2870;42.680;23.364;2022-11-28T11:23:04;6.50;;;5.60;;
5690;SDS011;2870;42.680;23.364;2022-11-28T11:25:43;6.20;;;5.60;;
5690;SDS011;2870;42.680;23.364;2022-11-28T11:28:23;9.67;;;5.10;;
5690;SDS011;2870;42.680;23.364;2022-11-28T11:30:58;6.23;;;5.57;;
5690;SDS011;2870;42.680;23.364;2022-11-28T11:33:27;5.73;;;5.10;;
5690;SDS011;2870;42.680;23.364;2022-11-28T11:35:58;7.53;;;5.90;;
5690;SDS011;2870;42.680;23.364;2022-11-28T11:38:28;8.23;;;5.60;;
5690;SDS011;2870;42.680;23.364;2022-11-28T11:40:56;9.23;;;6.27;;
5690;SDS011;2870;42.680;23.364;2022-11-28T11:43:24;8.73;;;6.40;;
5690;SDS011;2870;42.680;23.364;2022-11-28T11:46:07;9.07;;;6.03;;
5690;SDS011;2870;42.680;23.364;2022-11-28T11:48:36;10.20;;;6.30;;
5690;SDS011;2870;42.680;23.364;2022-11-28T11:51:04;7.27;;;5.23;;
5690;SDS011;2870;42.680;23.364;2022-11-28T11:53:31;8.07;;;5.60;;
5690;SDS011;2870;42.680;23.364;2022-11-28T11:55:59;7.73;;;6.20;;
5690;SDS011;2870;42.680;23.364;2022-11-28T11:58:31;5.67;;;5.07;;
5690;SDS011;2870;42.680;23.364;2022-11-28T12:01:04;9.80;;;5.77;;
5690;SDS011;2870;42.680;23.364;2022-11-28T12:03:35;5.90;;;5.13;;
5690;SDS011;2870;42.680;23.364;2022-11-28T12:06:09;6.83;;;5.50;;
5690;SDS011;2870;42.680;23.364;2022-11-28T12:08:40;9.00;;;6.23;;
5690;SDS011;2870;42.680;23.364;2022-11-28T12:11:15;7.47;;;6.63;;
5690;SDS011;2870;42.680;23.364;2022-11-28T12:13:48;10.23;;;7.13;;
5690;SDS011;2870;42.680;23.364;2022-11-28T12:16:24;14.13;;;7.10;;
5690;SDS011;2870;42.680;23.364;2022-11-28T12:19:02;6.30;;;5.70;;
5690;SDS011;2870;42.680;23.364;2022-11-28T12:21:36;6.60;;;5.30;;
5690;SDS011;2870;42.680;23.364;2022-11-28T12:24:10;7.27;;;5.53;;
5690;SDS011;2870;42.680;23.364;2022-11-28T12:26:42;7.50;;;5.67;;
5690;SDS011;2870;42.680;23.364;2022-11-28T12:29:21;8.73;;;5.50;;
5690;SDS011;2870;42.680;23.364;2022-11-28T12:32:05;6.73;;;6.00;;
5690;SDS011;2870;42.680;23.364;2022-11-28T12:34:43;6.33;;;5.57;;
5690;SDS011;2870;42.680;23.364;2022-11-28T12:37:25;6.00;;;5.20;;
5690;SDS011;2870;42.680;23.364;2022-11-28T12:40:02;7.53;;;5.60;;
5690;SDS011;2870;42.680;23.364;2022-11-28T12:42:45;5.40;;;4.90;;
5690;SDS011;2870;42.680;23.364;2022-11-28T12:45:22;5.53;;;4.90;;
5690;SDS011;2870;42.680;23.364;2022-11-28T12:48:15;6.20;;;5.43;;
5690;SDS011;2870;42.680;23.364;2022-11-28T12:50:57;5.50;;;5.00;;
5690;SDS011;2870;42.680;23.364;2022-11-28T12:53:31;5.87;;;5.27;;
5690;SDS011;2870;42.680;23.364;2022-11-28T12:56:23;5.77;;;5.03;;
5690;SDS011;2870;42.680;23.364;2022-11-28T12:59:01;16.43;;;5.17;;
5690;SDS011;2870;42.680;23.364;2022-11-28T13:01:41;6.10;;;5.50;;
5690;SDS011;2870;42.680;23.364;2022-11-28T13:04:24;5.90;;;5.00;;
5690;SDS011;2870;42.680;23.364;2022-11-28T13:07:05;7.60;;;5.37;;
5690;SDS011;2870;42.680;23.364;2022-11-28T13:09:43;6.43;;;5.27;;
5690;SDS011;2870;42.680;23.364;2022-11-28T13:12:21;5.60;;;5.00;;
5690;SDS011;2870;42.680;23.364;2022-11-28T13:14:53;6.00;;;5.40;;
5690;SDS011;2870;42.680;23.364;2022-11-28T13:17:27;5.43;;;4.70;;
5690;SDS011;2870;42.680;23.364;2022-11-28T13:20:05;7.10;;;5.17;;
5690;SDS011;2870;42.680;23.364;2022-11-28T13:22:45;8.67;;;5.97;;
5690;SDS011;2870;42.680;23.364;2022-11-28T13:25:27;7.83;;;6.33;;
5690;SDS011;2870;42.680;23.364;2022-11-28T13:28:02;7.00;;;6.00;;
5690;SDS011;2870;42.680;23.364;2022-11-28T13:30:38;8.20;;;6.47;;
5690;SDS011;2870;42.680;23.364;2022-11-28T13:33:18;10.10;;;5.63;;
5690;SDS011;2870;42.680;23.364;2022-11-28T13:35:58;7.57;;;5.90;;
5690;SDS011;2870;42.680;23.364;2022-11-28T13:38:29;6.53;;;5.20;;
5690;SDS011;2870;42.680;23.364;2022-11-28T13:41:05;7.13;;;5.10;;
5690;SDS011;2870;42.680;23.364;2022-11-28T13:43:38;11.40;;;5.33;;
5690;SDS011;2870;42.680;23.364;2022-11-28T13:46:10;6.10;;;5.47;;
5690;SDS011;2870;42.680;23.364;2022-11-28T13:48:50;6.10;;;5.50;;
5690;SDS011;2870;42.680;23.364;2022-11-28T13:51:26;9.23;;;5.90;;
5690;SDS011;2870;42.680;23.364;2022-11-28T13:57:10;8.73;;;5.13;;
5690;SDS011;2870;42.680;23.364;2022-11-28T13:59:47;6.10;;;5.50;;
5690;SDS011;2870;42.680;23.364;2022-11-28T14:02:24;8.13;;;5.80;;
5690;SDS011;2870;42.680;23.364;2022-11-28T14:05:00;6.10;;;5.50;;
5690;SDS011;2870;42.680;23.364;2022-11-28T14:07:30;4.97;;;4.40;;
5690;SDS011;2870;42.680;23.364;2022-11-28T14:10:02;5.23;;;4.73;;
5690;SDS011;2870;42.680;23.364;2022-11-28T14:12:45;7.17;;;5.70;;
5690;SDS011;2870;42.680;23.364;2022-11-28T14:15:23;6.10;;;5.33;;
5690;SDS011;2870;42.680;23.364;2022-11-28T14:18:00;6.20;;;4.80;;
5690;SDS011;2870;42.680;23.364;2022-11-28T14:20:37;6.70;;;5.60;;
5690;SDS011;2870;42.680;23.364;2022-11-28T14:23:18;7.13;;;5.03;;
5690;SDS011;2870;42.680;23.364;2022-11-28T14:25:54;14.20;;;5.90;;
5690;SDS011;2870;42.680;23.364;2022-11-28T14:28:22;5.87;;;4.70;;
5690;SDS011;2870;42.680;23.364;2022-11-28T14:30:51;5.33;;;4.47;;
5690;SDS011;2870;42.680;23.364;2022-11-28T14:33:30;5.80;;;4.90;;
5690;SDS011;2870;42.680;23.364;2022-11-28T14:36:01;8.80;;;6.70;;
5690;SDS011;2870;42.680;23.364;2022-11-28T14:38:47;10.63;;;7.40;;
5690;SDS011;2870;42.680;23.364;2022-11-28T14:41:26;13.63;;;8.03;;
5690;SDS011;2870;42.680;23.364;2022-11-28T14:43:53;9.03;;;6.73;;
5690;SDS011;2870;42.680;23.364;2022-11-28T14:46:31;11.20;;;8.50;;
5690;SDS011;2870;42.680;23.364;2022-11-28T14:54:57;15.53;;;12.03;;
5690;SDS011;2870;42.680;23.364;2022-11-28T14:57:26;12.37;;;8.70;;
5690;SDS011;2870;42.680;23.364;2022-11-28T14:59:56;12.60;;;8.80;;
5690;SDS011;2870;42.680;23.364;2022-11-28T15:02:42;13.30;;;8.77;;
5690;SDS011;2870;42.680;23.364;2022-11-28T15:05:29;19.13;;;9.33;;
5690;SDS011;2870;42.680;23.364;2022-11-28T15:08:08;12.60;;;8.40;;
5690;SDS011;2870;42.680;23.364;2022-11-28T15:10:56;19.13;;;9.40;;
5690;SDS011;2870;42.680;23.364;2022-11-28T15:13:40;13.50;;;8.57;;
5690;SDS011;2870;42.680;23.364;2022-11-28T15:16:15;9.23;;;7.20;;
5690;SDS011;2870;42.680;23.364;2022-11-28T15:18:47;14.63;;;9.70;;
5690;SDS011;2870;42.680;23.364;2022-11-28T15:21:17;14.80;;;9.83;;
5690;SDS011;2870;42.680;23.364;2022-11-28T15:23:47;13.37;;;9.37;;
5690;SDS011;2870;42.680;23.364;2022-11-28T15:26:21;13.10;;;9.63;;
5690;SDS011;2870;42.680;23.364;2022-11-28T15:29:06;11.63;;;9.33;;
5690;SDS011;2870;42.680;23.364;2022-11-28T15:31:34;15.13;;;9.50;;
5690;SDS011;2870;42.680;23.364;2022-11-28T15:34:01;10.87;;;8.97;;
5690;SDS011;2870;42.680;23.364;2022-11-28T15:36:28;10.83;;;8.00;;
5690;SDS011;2870;42.680;23.364;2022-11-28T15:38:55;14.10;;;8.90;;